»·PEaware :: DACTYL1 KLSV-KVBG

DACTYL1 :: KLSV-KVBG

FLIGHT INFORMATION

Flight Status: Arrived
Operator: Unknown
More flights by this operator :: More flights under this callsign
Pilot: Roland W. (25691)
Aircraft: BOEING 757-200
(B752)
More flights by this aircraft type
Origin: KLSV Nellis AFB
United States
Destination: KVBG Vandenberg AFB
United States
More flights between these airports :: More routes between these airports
Route: +MMM6 LAS Q70 HAILO RZS
File this flight plan on PilotEdge
Remarks: RMK / SIMBRIEF
Altitude:
(Current/Filed)
34,000ft
Speed:
(Current/Filed)
470kts
Departed: 29-Jul-19 08:57 PM
Arrived: 29-Jul-19 10:03 PM
Distance/Time
Traveled:
286nm/1:06
Distance/Time
To Go:
Arrived

Flight Plot

Page will automatically refresh every two minutes.

Flight plan parsing failed; only flown route is shown


Map Options




Map Legend


Flown Route
Filed Route
Departure Airport
Arrival Airport
Navaid (VOR, NDB)
Fix

Horizontal Profiles

Position Reports

Time Latitude Longitude Heading Altitude Ground
Speed
29-Jul-19 20:20 36.245884 -115.033610 226 1880ft 0kts
29-Jul-19 20:21 36.245884 -115.033610 226 1880ft 0kts
29-Jul-19 20:22 36.245884 -115.033610 226 1880ft 0kts
29-Jul-19 20:23 36.245884 -115.033610 226 1880ft 0kts
29-Jul-19 20:24 36.245884 -115.033610 226 1880ft 0kts
29-Jul-19 20:25 36.245884 -115.033610 226 1880ft 0kts
29-Jul-19 20:26 36.245884 -115.033610 226 1880ft 0kts
29-Jul-19 20:27 36.245884 -115.033610 226 1880ft 0kts
29-Jul-19 20:28 36.245884 -115.033610 226 1880ft 0kts
29-Jul-19 20:29 36.245884 -115.033610 226 1880ft 0kts
29-Jul-19 20:30 36.245884 -115.033610 226 1880ft 0kts
29-Jul-19 20:31 36.245884 -115.033610 226 1880ft 0kts
29-Jul-19 20:32 36.245884 -115.033610 226 1880ft 0kts
29-Jul-19 20:33 36.245884 -115.033610 226 1880ft 0kts
29-Jul-19 20:34 36.245884 -115.033610 226 1880ft 0kts
29-Jul-19 20:35 36.245884 -115.033610 226 1880ft 0kts
29-Jul-19 20:36 36.245884 -115.033610 226 1880ft 0kts
29-Jul-19 20:37 36.245884 -115.033610 226 1880ft 0kts
29-Jul-19 20:38 36.245884 -115.033610 226 1880ft 0kts
29-Jul-19 20:39 36.245884 -115.033610 226 1880ft 0kts
29-Jul-19 20:40 36.245884 -115.033610 226 1880ft 0kts
29-Jul-19 20:41 36.245884 -115.033610 226 1880ft 0kts
29-Jul-19 20:42 36.245884 -115.033610 226 1880ft 0kts
29-Jul-19 20:43 36.245884 -115.033610 226 1880ft 0kts
29-Jul-19 20:44 36.245884 -115.033610 226 1880ft 0kts
29-Jul-19 20:45 36.245884 -115.033610 226 1880ft 0kts
29-Jul-19 20:46 36.245884 -115.033610 226 1880ft 0kts
29-Jul-19 20:47 36.246845 -115.033367 90 1880ft 3kts
29-Jul-19 20:48 36.245227 -115.031244 174 1880ft 8kts
29-Jul-19 20:49 36.242679 -115.031682 222 1880ft 4kts
29-Jul-19 20:50 36.240107 -115.034508 222 1880ft 11kts
29-Jul-19 20:51 36.237483 -115.037301 221 1880ft 5kts
29-Jul-19 20:52 36.234962 -115.040063 223 1880ft 2kts
29-Jul-19 20:53 36.230933 -115.044421 220 1880ft 34kts
29-Jul-19 20:54 36.228792 -115.046805 219 1880ft 21kts
29-Jul-19 20:55 36.227100 -115.046565 70 1880ft 14kts
29-Jul-19 20:56 36.235009 -115.037733 40 1881ft 125kts
29-Jul-19 20:57 36.267971 -115.003115 39 2990ft 165kts
29-Jul-19 20:58 36.308092 -114.962659 39 4703ft 211kts
29-Jul-19 20:59 36.331242 -114.894710 115 6306ft 258kts
29-Jul-19 21:00 36.294573 -114.809796 126 8391ft 292kts
29-Jul-19 21:01 36.222830 -114.799233 220 10458ft 306kts
29-Jul-19 21:02 36.178263 -114.898418 244 11989ft 358kts
29-Jul-19 21:03 36.134432 -115.014724 244 14367ft 380kts
29-Jul-19 21:04 36.088809 -115.135604 244 16811ft 397kts
29-Jul-19 21:05 36.029530 -115.253671 234 19151ft 412kts
29-Jul-19 21:06 35.964359 -115.372909 235 21388ft 426kts
29-Jul-19 21:07 35.897150 -115.496768 235 23527ft 439kts
29-Jul-19 21:08 35.828236 -115.623129 234 25565ft 449kts
29-Jul-19 21:09 35.757663 -115.752075 234 27497ft 456kts
29-Jul-19 21:10 35.686237 -115.882084 234 29222ft 463kts
29-Jul-19 21:11 35.621654 -116.019466 246 31187ft 462kts
29-Jul-19 21:12 35.582365 -116.168384 248 33149ft 454kts
29-Jul-19 21:13 35.541490 -116.314422 247 33953ft 451kts
29-Jul-19 21:15 35.500582 -116.459578 247 33955ft 451kts
29-Jul-19 21:16 35.459410 -116.605151 247 33953ft 451kts
29-Jul-19 21:17 35.418071 -116.750493 247 33950ft 451kts
29-Jul-19 21:18 35.376435 -116.896130 247 33953ft 451kts
29-Jul-19 21:19 35.334873 -117.040749 246 33954ft 451kts
29-Jul-19 21:20 35.297272 -117.170945 246 33954ft 451kts
29-Jul-19 21:21 35.256620 -117.311032 246 33946ft 451kts
29-Jul-19 21:22 35.214437 -117.455656 246 33957ft 450kts
29-Jul-19 21:23 35.172208 -117.599709 246 33964ft 450kts
29-Jul-19 21:24 35.129799 -117.743644 246 33968ft 450kts
29-Jul-19 21:25 35.087179 -117.887562 246 33985ft 450kts
29-Jul-19 21:26 35.052588 -118.003841 246 33989ft 450kts
29-Jul-19 21:27 35.009655 -118.147511 246 33998ft 450kts
29-Jul-19 21:28 34.966609 -118.290836 246 34026ft 450kts
29-Jul-19 21:29 34.923836 -118.432604 246 32411ft 445kts
29-Jul-19 21:30 34.880416 -118.575670 246 31514ft 453kts
29-Jul-19 21:31 34.837466 -118.716622 246 30236ft 457kts
29-Jul-19 21:32 34.799484 -118.840651 246 29048ft 462kts
29-Jul-19 21:33 34.754214 -118.987854 247 27795ft 462kts
29-Jul-19 21:33 34.722887 -119.089482 247 26712ft 429kts
29-Jul-19 21:35 34.686703 -119.206033 247 24435ft 418kts
29-Jul-19 21:35 34.661086 -119.288349 247 22803ft 410kts
29-Jul-19 21:37 34.614828 -119.436490 248 20024ft 393kts
29-Jul-19 21:38 34.576683 -119.558074 248 17746ft 379kts
29-Jul-19 21:38 34.546728 -119.654314 252 15925ft 369kts
29-Jul-19 21:40 34.535252 -119.757194 263 14202ft 356kts
29-Jul-19 21:40 34.529355 -119.832802 263 13322ft 337kts
29-Jul-19 21:41 34.521782 -119.929235 263 12184ft 314kts
29-Jul-19 21:42 34.514288 -120.023673 263 11305ft 289kts
29-Jul-19 21:43 34.507476 -120.108139 264 9981ft 289kts
29-Jul-19 21:44 34.499621 -120.204800 265 8520ft 287kts
29-Jul-19 21:45 34.491945 -120.299398 267 7401ft 272kts
29-Jul-19 21:46 34.535845 -120.345757 17 6964ft 235kts
29-Jul-19 21:47 34.560921 -120.276393 81 6059ft 240kts
29-Jul-19 21:48 34.566968 -120.197130 82 5997ft 242kts
29-Jul-19 21:49 34.571679 -120.129084 82 5999ft 242kts
29-Jul-19 21:50 34.546921 -120.061687 158 6052ft 245kts
29-Jul-19 21:51 34.485945 -120.064889 237 5992ft 232kts
29-Jul-19 21:52 34.481856 -120.129597 275 5979ft 221kts
29-Jul-19 21:53 34.486049 -120.204072 275 5991ft 222kts
29-Jul-19 21:54 34.490200 -120.278655 275 5993ft 222kts
29-Jul-19 21:55 34.524183 -120.337497 314 5441ft 215kts
29-Jul-19 21:56 34.565916 -120.387762 316 4521ft 210kts
29-Jul-19 21:57 34.608313 -120.436433 317 3438ft 207kts
29-Jul-19 21:58 34.642145 -120.475179 318 2539ft 133kts
29-Jul-19 21:59 34.670254 -120.507361 317 1785ft 126kts
29-Jul-19 22:00 34.695816 -120.536670 317 1138ft 128kts
29-Jul-19 22:01 34.721908 -120.566666 318 452ft 133kts
29-Jul-19 22:02 34.738297 -120.584789 9 379ft 23kts
29-Jul-19 22:03 34.739215 -120.584139 43 379ft 14kts

Navigation Log

Ident Type
Flight plan parsing failed, navigation log unavailable